Temp     Hi    Low   Out    Dew  Wind  Wind   Wind    Hi    Hi   Wind   Heat    THW   THSW                Rain  Solar   Solar Hi Solar   UV    UV    Hi     Heat    Cool    In     In    In     In           Wind  Wind    ISS   Arc.
  Date    Time     Out   Temp   Temp   Hum    Pt. Speed   Dir    Run Speed   Dir  Chill  Index  Index  Index   Bar    Rain  Rate   Rad.  Energy    Rad.  Index  Dose   UV     D-D     D-D    Temp   Hum    Dew   Heat     ET   Samp   Tx   Recept  Int.
---------------------------------------------------------------------------------------------------------------------------------------------------------------------------------------------------------------------------------------------------------
 9/23/17 12:30a   42.2   42.7   40.3    71   33.5   0.0   ---   0.00   0.0   ---   42.2   41.6   41.6   36.8  29.932  0.00  0.00     0     0.00      0     0.0  0.00   0.0   0.475   0.000   72.3    43   48.5   70.9   0.000   676    2    100.0   30 
 9/23/17  1:00a   45.1   45.8   41.6    67   34.8   2.0   WSW   1.00   6.0   WSW   45.1   44.5   44.5   39.8  29.934  0.00  0.00     0     0.00      0     0.0  0.00   0.0   0.415   0.000   71.9    43   48.2   70.3   0.001   686    2    100.0   30 
 9/23/17  1:30a   44.5   45.1   44.3    69   35.0   1.0   WSW   0.50   5.0   WSW   44.5   44.0   44.0   39.3  29.940  0.00  0.00     0     0.00      0     0.0  0.00   0.0   0.427   0.000   71.8    43   48.1   70.1   0.000   676    2    100.0   30 
 9/23/17  2:00a   44.0   45.0   41.3    72   35.6   1.0   WSW   0.50   5.0   WSW   44.0   43.5   43.5   38.8  29.940  0.00  0.00     0     0.00      0     0.0  0.00   0.0   0.438   0.000   71.4    43   47.7   69.5   0.001   678    2    100.0   30 
 9/23/17  2:30a   43.4   44.1   41.6    73   35.3   0.0   WSW   0.00   4.0   WSW   43.4   42.9   42.9   38.2  29.936  0.00  0.00     0     0.00      0     0.0  0.00   0.0   0.450   0.000   71.1    43   47.5   69.1   0.000   683    2    100.0   30 
 9/23/17  3:00a   44.1   44.6   42.8    72   35.6   1.0   WSW   0.50   5.0   WSW   44.1   43.6   43.6   38.9  29.935  0.00  0.00     0     0.00      0     0.0  0.00   0.0   0.435   0.000   70.7    43   47.1   68.5   0.001   674    2    100.0   30 
 9/23/17  3:30a   41.8   44.1   41.5    76   34.8   0.0   WSW   0.00   3.0   WSW   41.8   41.4   41.4   36.7  29.939  0.00  0.00     0     0.00      0     0.0  0.00   0.0   0.483   0.000   70.4    43   46.8   68.1   0.000   679    2    100.0   30 
 9/23/17  4:00a   41.7   42.8   41.3    76   34.7   0.0   ---   0.00   0.0   ---   41.7   41.3   41.3   36.6  29.935  0.00  0.00     0     0.00      0     0.0  0.00   0.0   0.485   0.000   70.1    43   46.6   67.7   0.001   685    2    100.0   30 
 9/23/17  4:30a   40.6   42.7   40.6    77   34.0   0.0   ---   0.00   0.0   ---   40.6   40.2   40.2   35.4  29.934  0.00  0.00     0     0.00      0     0.0  0.00   0.0   0.508   0.000   69.9    43   46.4   67.5   0.000   674    2    100.0   30 
 9/23/17  5:00a   41.3   42.1   40.2    78   35.0   0.0   ---   0.00   0.0   ---   41.3   41.0   41.0   36.3  29.939  0.00  0.00     0     0.00      0     0.0  0.00   0.0   0.494   0.000   69.6    43   46.1   67.3   0.001   682    2    100.0   30 
 9/23/17  5:30a   41.3   42.5   40.7    80   35.6   0.0   ---   0.00   0.0   ---   41.3   41.0   41.0   36.3  29.945  0.00  0.00     0     0.00      0     0.0  0.00   0.0   0.494   0.000   69.4    43   45.9   67.2   0.000   683    2    100.0   30 
 9/23/17  6:00a   41.8   42.2   40.9    79   35.8   0.0   ---   0.00   0.0   ---   41.8   41.5   41.5   36.8  29.950  0.00  0.00     0     0.00      0     0.0  0.00   0.0   0.483   0.000   69.0    43   45.6   66.9   0.000   672    2    100.0   30 
 9/23/17  6:30a   40.8   43.0   39.8    82   35.7   0.0   ---   0.00   0.0   ---   40.8   40.5   40.5   35.8  29.954  0.00  0.00     0     0.00      0     0.0  0.00   0.0   0.504   0.000   68.7    43   45.3   66.6   0.000   685    2    100.0   30 
 9/23/17  7:00a   39.7   41.1   39.3    82   34.7   0.0   ---   0.00   0.0   ---   39.7   39.4   39.4   34.8  29.958  0.00  0.00     4     0.17     12     0.0  0.00   0.0   0.527   0.000   68.5    44   45.7   66.5   0.000   681    2    100.0   30 
 9/23/17  7:30a   40.7   40.9   39.2    82   35.6   0.0   ---   0.00   0.0   ---   40.7   40.4   40.4   38.3  29.968  0.00  0.00    19     0.82     25     0.0  0.00   0.0   0.506   0.000   69.4    44   46.5   67.3   0.000   675    2    100.0   30 
 9/23/17  8:00a   42.8   42.8   40.5    78   36.4   0.0   ---   0.00   0.0   ---   42.8   42.5   42.5   40.7  29.971  0.00  0.00    29     1.25     33     0.0  0.00   0.0   0.463   0.000   69.6    44   46.7   67.4   0.000   686    2    100.0   30 
 9/23/17  8:30a   47.3   47.3   42.8    72   38.7   0.0   ---   0.00   0.0   ---   47.3   46.9   46.9   48.7  29.973  0.00  0.00   126     5.42    257     0.2  0.03   0.5   0.369   0.000   70.2    44   47.3   68.0   0.000   682    2    100.0   30 
 9/23/17  9:00a   51.3   51.3   47.3    62   38.7   0.0   ---   0.00   0.0   ---   51.3   50.5   50.5   51.3  29.972  0.00  0.00   108     4.64    260     0.3  0.05   0.8   0.285   0.000   71.2    43   47.6   69.2   0.002   681    2    100.0   30 
 9/23/17  9:30a   53.1   53.1   51.3    59   39.1   1.0     W   0.50   8.0     W   53.1   51.9   51.9   52.7  29.971  0.00  0.00   121     5.20    216     1.0  0.16   1.3   0.248   0.000   71.4    44   48.3   69.6   0.000   667    2    100.0   30 
 9/23/17 10:00a   54.2   54.2   53.1    57   39.3   4.0   NNW   2.00  12.0   NNW   53.7   52.9   52.4   51.4  29.978  0.00  0.00    71     3.05    190     1.3  0.21   2.7   0.225   0.000   72.4    43   48.6   71.0   0.003   685    2    100.0   30 
 9/23/17 10:30a   55.5   55.5   54.2    53   38.6   6.0   NNW   3.00  13.0   NNW   54.2   53.8   52.5   55.4  29.979  0.00  0.00   229     9.85    548     2.0  0.32   3.4   0.198   0.000   73.3    42   48.8   72.3   0.000   684    2    100.0   30 
 9/23/17 11:00a   56.0   56.1   55.3    52   38.6   9.0   NNW   4.50  18.0   NNW   53.0   54.2   51.2   57.0  29.975  0.00  0.00   421    18.11    714     3.1  0.50   4.4   0.188   0.000   73.3    42   48.8   72.3   0.009   675    2    100.0   30 
 9/23/17 11:30a   56.4   56.8   56.1    51   38.5   8.0   NNW   4.00  16.0   NNW   54.2   54.6   52.4   55.2  29.979  0.00  0.00   249    10.71    782     3.8  0.61   5.1   0.179   0.000   73.5    42   49.0   72.5   0.000   677    2    100.0   30 
 9/23/17 12:00p   58.5   58.5   56.3    50   39.9   3.0    NW   1.50  12.0   NNW   58.5   56.5   56.5   63.5  29.976  0.00  0.00   466    20.04    833     4.6  0.74   5.9   0.135   0.000   73.5    42   49.0   72.5   0.010   682    2    100.0   30 
 9/23/17 12:30p   59.1   60.2   57.8    48   39.4   3.0   NNW   1.50  15.0     N   59.1   57.0   57.0   66.7  29.966  0.00  0.00   789    33.93    858     5.8  0.93   6.2   0.123   0.000   73.6    42   49.1   72.7   0.000   675    2    100.0   30 
 9/23/17  1:00p   59.0   60.5   58.7    48   39.3   7.0   NNW   3.50  16.0   NNW   58.0   56.9   55.9   65.1  29.961  0.00  0.00   838    36.04    875     6.1  0.98   6.3   0.125   0.000   73.8    42   49.3   72.9   0.019   680    2    100.0   30 
 9/23/17  1:30p   60.4   60.4   58.8    46   39.5   9.0   NNW   4.50  17.0   NNW   58.2   58.2   56.0   64.5  29.955  0.00  0.00   828    35.61    838     6.0  0.96   6.2   0.096   0.000   74.0    42   49.4   73.2   0.000   683    2    100.0   30 
 9/23/17  2:00p   60.7   62.1   59.0    46   39.8   8.0   NNW   4.00  19.0   NNW   59.3   58.5   57.1   65.8  29.955  0.00  0.00   808    34.75    821     5.7  0.92   5.9   0.090   0.000   74.2    42   49.6   73.5   0.020   672    2    100.0   30 
 9/23/17  2:30p   61.0   61.4   60.3    45   39.5   9.0    NW   4.50  17.0   NNW   58.9   58.7   56.6   64.9  29.956  0.00  0.00   774    33.29    796     5.0  0.80   5.4   0.083   0.000   74.3    41   49.1   73.5   0.000   678    2    100.0   30 
 9/23/17  3:00p   59.7   61.0   59.5    45   38.3  11.0   NNW   5.50  22.0   NNW   56.0   57.4   53.7   61.3  29.957  0.00  0.00   722    31.05    752     4.2  0.67   4.6   0.110   0.000   74.5    41   49.2   73.7   0.020   686    2    100.0   30 
 9/23/17  3:30p   59.9   61.1   59.7    44   37.9  11.0   NNW   5.50  18.0   NNW   56.2   57.5   53.8   61.4  29.955  0.00  0.00   653    28.08    687     3.3  0.53   3.8   0.106   0.000   74.5    41   49.2   73.7   0.000   670    2    100.0   30 
 9/23/17  4:00p   59.3   60.4   59.3    44   37.4  11.0   NNW   5.50  19.0   NNW   55.5   56.9   53.1   60.5  29.953  0.00  0.00   578    24.86    619     2.3  0.37   2.8   0.119   0.000   74.5    40   48.6   73.6   0.017   684    2    100.0   30 
 9/23/17  4:30p   59.9   60.4   59.2    45   38.5  10.0   NNW   5.00  16.0   NNW   56.9   57.6   54.6   62.0  29.952  0.00  0.00   490    21.07    534     1.5  0.24   1.8   0.106   0.000   74.3    41   49.1   73.5   0.000   683    2    100.0   30 
 9/23/17  5:00p   59.6   59.9   59.3    44   37.6  10.0   NNW   5.00  16.0   NNW   56.5   57.2   54.1   60.8  29.954  0.00  0.00   394    16.94    439     0.8  0.13   1.1   0.113   0.000   74.3    41   49.1   73.5   0.013   674    2    100.0   30 
 9/23/17  5:30p   58.9   59.7   58.6    45   37.6   9.0   NNW   4.50  15.0     N   56.4   56.6   54.1   59.8  29.957  0.00  0.00   292    12.56    341     0.0  0.00   0.5   0.127   0.000   74.3    41   49.1   73.5   0.000   683    2    100.0   30 
 9/23/17  6:00p   57.8   58.8   57.7    45   36.6   8.0   NNW   4.00  15.0   NNW   55.9   55.5   53.6   56.7  29.960  0.00  0.00   175     7.53    237     0.0  0.00   0.0   0.150   0.000   74.3    41   49.1   73.5   0.008   677    2    100.0   30 
 9/23/17  6:30p   55.7   57.8   55.7    48   36.3   5.0   NNW   2.50  13.0   NNW   54.9   53.7   52.9   49.0  29.967  0.00  0.00    32     1.38    114     0.0  0.00   0.0   0.194   0.000   74.3    41   49.1   73.5   0.000   677    2    100.0   30 
 9/23/17  7:00p   53.9   55.7   53.9    51   36.2   2.0   NNW   1.00   7.0   NNW   53.9   52.3   52.3   47.8  29.973  0.00  0.00     5     0.22     12     0.0  0.00   0.0   0.231   0.000   74.3    41   49.1   73.5   0.002   686    2    100.0   30 
 9/23/17  7:30p   52.2   53.9   52.2    53   35.6   0.0   ---   0.00   0.0   ---   52.2   50.8   50.8   46.1  29.980  0.00  0.00     0     0.00      0     0.0  0.00   0.0   0.267   0.000   74.5    43   50.5   73.9   0.000   671    2    100.0   30 
 9/23/17  8:00p   51.6   52.3   51.5    54   35.5   0.0   ---   0.00   0.0   ---   51.6   50.4   50.4   45.7  29.987  0.00  0.00     0     0.00      0     0.0  0.00   0.0   0.279   0.000   74.9    45   52.1   74.6   0.001   684    2    100.0   30 
 9/23/17  8:30p   49.7   51.8   49.7    57   35.1   0.0    NW   0.00   2.0    NW   49.7   48.8   48.8   44.1  29.989  0.00  0.00     0     0.00      0     0.0  0.00   0.0   0.319   0.000   74.9    44   51.5   74.5   0.000   684    2    100.0   30 
 9/23/17  9:00p   50.2   50.2   49.3    57   35.5   0.0    NW   0.00   3.0    NW   50.2   49.3   49.3   44.6  29.989  0.00  0.00     0     0.00      0     0.0  0.00   0.0   0.308   0.000   74.9    45   52.1   74.6   0.001   670    2    100.0   30 
 9/23/17  9:30p   48.3   50.2   48.3    59   34.6   0.0   ---   0.00   0.0   ---   48.3   47.5   47.5   42.8  29.987  0.00  0.00     0     0.00      0     0.0  0.00   0.0   0.348   0.000   74.9    45   52.1   74.6   0.000   684    2    100.0   30 
 9/23/17 10:00p   45.9   48.3   45.8    64   34.4   0.0   ---   0.00   0.0   ---   45.9   45.2   45.2   40.5  29.994  0.00  0.00     0     0.00      0     0.0  0.00   0.0   0.398   0.000   74.7    46   52.5   74.4   0.001   683    2    100.0   30 
 9/23/17 10:30p   45.0   45.9   45.0    64   33.5   0.0   ---   0.00   0.0   ---   45.0   44.3   44.3   39.6  30.001  0.00  0.00     0     0.00      0     0.0  0.00   0.0   0.417   0.000   74.7    45   51.9   74.3   0.000   673    2    100.0   30 
 9/23/17 11:00p   43.2   45.6   43.2    68   33.3   0.0   ---   0.00   0.0   ---   43.2   42.6   42.6   37.9  30.003  0.00  0.00     0     0.00      0     0.0  0.00   0.0   0.454   0.000   74.5    47   52.9   74.2   0.001   684    2    100.0   30 
 9/23/17 11:30p   43.5   44.2   43.2    67   33.3   0.0   ---   0.00   0.0   ---   43.5   42.9   42.9   38.2  30.005  0.00  0.00     0     0.00      0     0.0  0.00   0.0   0.448   0.000   74.2    46   52.1   73.7   0.000   679    2    100.0   30 
 9/24/17 12:00a   41.6   43.6   41.6    70   32.5   0.0   ---   0.00   0.0   ---   41.6   41.0   41.0   36.2  30.007  0.00  0.00     0     0.00      0     0.0  0.00   0.0   0.488   0.000   73.6    46   51.5   72.9   0.001   675    2    100.0   30 
 9/24/17 12:30a   41.7   41.8   41.1    68   31.9   0.0   ---   0.00   0.0   ---   41.7   41.1   41.1   36.3  30.005  0.00  0.00     0     0.00      0     0.0  0.00   0.0   0.485   0.000   73.1    46   51.1   72.3   0.000   684    2    100.0   30 
 9/24/17  1:00a   40.4   41.9   40.0    72   32.1   0.0   ---   0.00   0.0   ---   40.4   39.9   39.9   35.1  30.009  0.00  0.00     0     0.00      0     0.0  0.00   0.0   0.512   0.000   72.6    45   50.0   71.5   0.001   676    2    100.0   30 
 9/24/17  1:30a   39.8   40.5   39.4    71   31.2   0.0   ---   0.00   0.0   ---   39.8   39.2   39.2   34.4  30.013  0.00  0.00     0     0.00      0     0.0  0.00   0.0   0.525   0.000   72.3    45   49.8   71.1   0.000   679    2    100.0   30 
 9/24/17  2:00a   39.7   39.8   39.0    71   31.1   0.0   ---   0.00   0.0   ---   39.7   39.1   39.1   34.3  30.017  0.00  0.00     0     0.00      0     0.0  0.00   0.0   0.527   0.000   71.8    45   49.3   70.3   0.001   683    2    100.0   30 
 9/24/17  2:30a   39.1   39.8   39.1    70   30.1   0.0   ---   0.00   0.0   ---   39.1   38.5   38.5   33.7  30.019  0.00  0.00     0     0.00      0     0.0  0.00   0.0   0.540   0.000   71.4    44   48.3   69.6   0.000   672    2    100.0   30 
 9/24/17  3:00a   39.4   39.4   38.1    66   29.0   0.0   ---   0.00   0.0   ---   39.4   38.7   38.7   33.8  30.021  0.00  0.00     0     0.00      0     0.0  0.00   0.0   0.533   0.000   71.1    44   48.1   69.1   0.001   682    2    100.0   30 
 9/24/17  3:30a   38.2   39.5   38.2    66   27.8   0.0   ---   0.00   0.0   ---   38.2   37.5   37.5   32.6  30.020  0.00  0.00     0     0.00      0     0.0  0.00   0.0   0.558   0.000   70.6    44   47.6   68.5   0.000   686    2    100.0   30 
 9/24/17  4:00a   37.4   38.2   36.8    69   28.2   0.0   ---   0.00   0.0   ---   37.4   36.8   36.8   31.9  30.022  0.00  0.00     0     0.00      0     0.0  0.00   0.0   0.575   0.000   70.2    44   47.3   68.0   0.001   673    2    100.0   30 
 9/24/17  4:30a   37.9   37.9   35.7    70   29.0   0.0   ---   0.00   0.0   ---   37.9   37.3   37.3   32.4  30.027  0.00  0.00     0     0.00      0     0.0  0.00   0.0   0.565   0.000   69.9    44   47.0   67.6   0.000   681    2    100.0   30 
 9/24/17  5:00a   36.5   38.8   36.5    72   28.3   0.0   ---   0.00   0.0   ---   36.5   36.0   36.0   31.1  30.027  0.00  0.00     0     0.00      0     0.0  0.00   0.0   0.594   0.000   69.6    43   46.1   67.3   0.001   685    2    100.0   30 
 9/24/17  5:30a   35.3   36.8   35.3    74   27.8   0.0   ---   0.00   0.0   ---   35.3   34.9   34.9   30.0  30.035  0.00  0.00     0     0.00      0     0.0  0.00   0.0   0.619   0.000   69.2    43   45.7   67.0   0.000   672    2    100.0   30 
 9/24/17  6:00a   36.7   36.7   35.3    73   28.9   0.0   ---   0.00   0.0   ---   36.7   36.2   36.2   31.3  30.040  0.00  0.00     0     0.00      0     0.0  0.00   0.0   0.590   0.000   68.9    43   45.5   66.8   0.001   683    2    100.0   30 
 9/24/17  6:30a   36.7   37.2   35.9    72   28.5   0.0   ---   0.00   0.0   ---   36.7   36.2   36.2   31.3  30.044  0.00  0.00     0     0.00      0     0.0  0.00   0.0   0.590   0.000   68.5    43   45.1   66.4   0.000   681    2    100.0   30 
 9/24/17  7:00a   36.0   36.7   35.3    76   29.2   1.0    NW   0.50   5.0    NW   36.0   35.6   35.6   30.8  30.054  0.00  0.00     3     0.13      9     0.0  0.00   0.0   0.604   0.000   68.2    43   44.8   66.1   0.000   672    2    100.0   30 
 9/24/17  7:30a   38.1   38.1   36.0    71   29.5   0.0    NW   0.00   4.0    NW   38.1   37.5   37.5   35.0  30.062  0.00  0.00    15     0.65     19     0.0  0.00   0.0   0.560   0.000   67.9    43   44.6   65.8   0.000   683    2    100.0   30 
 9/24/17  8:00a   42.7   42.7   37.9    65   31.7   0.0   ---   0.00   0.0   ---   42.7   42.0   42.0   39.8  30.062  0.00  0.00    23     0.99     26     0.0  0.00   0.0   0.465   0.000   67.9    44   45.2   66.0   0.000   684    2    100.0   30 
 9/24/17  8:30a   52.4   52.4   42.7    43   30.5   0.0    NW   0.00   6.0     E   52.4   50.6   50.6   51.8  30.062  0.00  0.00   115     4.95    262     0.2  0.03   0.5   0.262   0.000   69.2    43   45.7   67.0   0.000   685    2    100.0   30 
 9/24/17  9:00a   57.8   57.8   52.5    32   28.1   5.0     E   2.50  14.0     E   57.4   54.6   54.2   56.1  30.063  0.00  0.00   153     6.58    318     0.4  0.06   0.9   0.150   0.000   70.4    42   46.2   68.0   0.004   675    2    100.0   30 
 9/24/17  9:30a   59.2   59.2   57.8    29   26.9   8.0   ESE   4.00  18.0     E   57.5   55.6   53.9   53.0  30.064  0.00  0.00    73     3.14    169     0.6  0.10   1.5   0.121   0.000   70.7    42   46.5   68.4   0.000   681    2    100.0   30 
 9/24/17 10:00a   60.7   60.7   59.2    27   26.5   9.0   ESE   4.50  18.0   ESE   58.5   56.7   54.5   54.8  30.069  0.00  0.00   126     5.42    283     1.1  0.18   2.2   0.090   0.000   71.2    42   46.9   69.1   0.007   683    2    100.0   30 
 9/24/17 10:30a   61.7   61.7   60.7    27   27.3   9.0   ESE   4.50  20.0    SE   59.7   57.6   55.6   56.9  30.066  0.00  0.00   172     7.40    624     1.7  0.27   3.0   0.069   0.000   71.4    41   46.5   69.3   0.000   673    2    100.0   30 
 9/24/17 11:00a   62.9   62.9   61.6    26   27.5   8.0   ESE   4.00  19.0     E   62.0   58.6   57.7   64.8  30.068  0.00  0.00   512    22.02    675     2.4  0.39   4.6   0.044   0.000   71.4    41   46.5   69.3   0.012   682    2    100.0   30 
 9/24/17 11:30a   64.2   64.2   62.7    25   27.6  10.0     E   5.00  20.0     E   61.8   59.6   57.2   63.6  30.065  0.00  0.00   510    21.93    780     4.8  0.77   5.4   0.017   0.000   72.1    40   46.4   70.3   0.000   684    2    100.0   30 
 9/24/17 12:00p   65.7   65.8   64.1    22   25.8   8.0   ESE   4.00  16.0     E   65.1   60.8   60.2   68.5  30.061  0.00  0.00   806    34.66    821     5.7  0.92   5.9   0.000   0.015   73.5    39   47.0   72.3   0.019   672    2    100.0   30 
 9/24/17 12:30p   66.3   66.6   65.2    22   26.3   7.0     E   3.50  18.0     E   66.3   61.4   61.4   70.0  30.049  0.00  0.00   834    35.87    844     6.2  1.00   6.3   0.000   0.027   73.6    39   47.1   72.5   0.000   685    2    100.0   30 
 9/24/17  1:00p   66.7   68.7   66.1    22   26.6   3.0     E   1.50  12.0   ESE   66.7   61.8   61.8   70.5  30.038  0.00  0.00   847    36.43    851     6.3  1.01   6.4   0.000   0.035   73.6    40   47.8   72.5   0.022   675    2    100.0   30 
 9/24/17  1:30p   69.7   69.8   66.8    20   26.8   2.0   ESE   1.00  10.0   ESE   69.7   65.1   65.1   73.6  30.025  0.00  0.00   845    36.34    851     5.9  0.95   6.1   0.000   0.098   73.5    40   47.7   72.4   0.000   681    2    100.0   30